sensor_id;sensor_type;location;lat;lon;timestamp;P1;durP1;ratioP1;P2;durP2;ratioP2
8293;SDS011;4185;41.506;24.938;2023-03-01T00:02:20;3.37;;;2.70;;
8293;SDS011;4185;41.506;24.938;2023-03-01T00:04:47;3.03;;;2.33;;
8293;SDS011;4185;41.506;24.938;2023-03-01T00:07:14;3.20;;;2.90;;
8293;SDS011;4185;41.506;24.938;2023-03-01T00:09:42;4.23;;;3.70;;
8293;SDS011;4185;41.506;24.938;2023-03-01T00:12:11;6.63;;;4.17;;
8293;SDS011;4185;41.506;24.938;2023-03-01T00:14:37;6.30;;;4.27;;
8293;SDS011;4185;41.506;24.938;2023-03-01T00:17:04;9.60;;;7.10;;
8293;SDS011;4185;41.506;24.938;2023-03-01T00:19:31;4.03;;;3.33;;
8293;SDS011;4185;41.506;24.938;2023-03-01T00:21:58;4.40;;;3.80;;
8293;SDS011;4185;41.506;24.938;2023-03-01T00:24:25;5.73;;;2.97;;
8293;SDS011;4185;41.506;24.938;2023-03-01T00:26:54;7.20;;;5.90;;
8293;SDS011;4185;41.506;24.938;2023-03-01T00:29:21;2.80;;;2.60;;
8293;SDS011;4185;41.506;24.938;2023-03-01T00:31:48;2.93;;;2.10;;
8293;SDS011;4185;41.506;24.938;2023-03-01T00:34:15;4.00;;;2.43;;
8293;SDS011;4185;41.506;24.938;2023-03-01T00:36:42;1.83;;;1.73;;
8293;SDS011;4185;41.506;24.938;2023-03-01T00:39:10;2.20;;;2.00;;
8293;SDS011;4185;41.506;24.938;2023-03-01T00:41:38;1.80;;;1.70;;
8293;SDS011;4185;41.506;24.938;2023-03-01T00:44:06;2.70;;;2.40;;
8293;SDS011;4185;41.506;24.938;2023-03-01T00:46:33;5.47;;;3.80;;
8293;SDS011;4185;41.506;24.938;2023-03-01T00:49:00;2.67;;;2.37;;
8293;SDS011;4185;41.506;24.938;2023-03-01T00:51:30;3.20;;;2.60;;
8293;SDS011;4185;41.506;24.938;2023-03-01T00:53:57;3.23;;;2.13;;
8293;SDS011;4185;41.506;24.938;2023-03-01T00:56:26;2.83;;;2.57;;
8293;SDS011;4185;41.506;24.938;2023-03-01T00:58:53;2.20;;;2.10;;
8293;SDS011;4185;41.506;24.938;2023-03-01T01:01:22;3.80;;;2.73;;
8293;SDS011;4185;41.506;24.938;2023-03-01T01:03:53;3.83;;;2.90;;
8293;SDS011;4185;41.506;24.938;2023-03-01T01:06:22;2.90;;;2.00;;
8293;SDS011;4185;41.506;24.938;2023-03-01T01:08:51;3.93;;;2.23;;
8293;SDS011;4185;41.506;24.938;2023-03-01T01:11:19;3.57;;;2.13;;
8293;SDS011;4185;41.506;24.938;2023-03-01T01:13:47;2.23;;;1.80;;
8293;SDS011;4185;41.506;24.938;2023-03-01T01:16:14;2.03;;;1.83;;
8293;SDS011;4185;41.506;24.938;2023-03-01T01:18:43;3.03;;;1.90;;
8293;SDS011;4185;41.506;24.938;2023-03-01T01:21:10;2.90;;;2.27;;
8293;SDS011;4185;41.506;24.938;2023-03-01T01:23:39;2.07;;;1.90;;
8293;SDS011;4185;41.506;24.938;2023-03-01T01:26:07;2.07;;;1.97;;
8293;SDS011;4185;41.506;24.938;2023-03-01T01:28:35;2.93;;;2.63;;
8293;SDS011;4185;41.506;24.938;2023-03-01T01:31:02;2.10;;;1.90;;
8293;SDS011;4185;41.506;24.938;2023-03-01T01:33:30;3.80;;;3.37;;
8293;SDS011;4185;41.506;24.938;2023-03-01T01:35:58;3.37;;;2.43;;
8293;SDS011;4185;41.506;24.938;2023-03-01T01:38:25;2.00;;;1.80;;
8293;SDS011;4185;41.506;24.938;2023-03-01T01:40:51;2.83;;;2.10;;
8293;SDS011;4185;41.506;24.938;2023-03-01T01:43:20;2.73;;;2.30;;
8293;SDS011;4185;41.506;24.938;2023-03-01T01:45:48;4.20;;;3.43;;
8293;SDS011;4185;41.506;24.938;2023-03-01T01:48:16;3.90;;;2.80;;
8293;SDS011;4185;41.506;24.938;2023-03-01T01:50:48;4.03;;;3.37;;
8293;SDS011;4185;41.506;24.938;2023-03-01T01:53:23;5.30;;;4.10;;
8293;SDS011;4185;41.506;24.938;2023-03-01T01:55:52;3.37;;;2.77;;
8293;SDS011;4185;41.506;24.938;2023-03-01T01:58:23;2.50;;;2.30;;
8293;SDS011;4185;41.506;24.938;2023-03-01T02:00:52;3.70;;;2.43;;
8293;SDS011;4185;41.506;24.938;2023-03-01T02:03:20;2.70;;;2.50;;
8293;SDS011;4185;41.506;24.938;2023-03-01T02:05:55;4.40;;;3.07;;
8293;SDS011;4185;41.506;24.938;2023-03-01T02:08:28;3.10;;;2.57;;
8293;SDS011;4185;41.506;24.938;2023-03-01T02:10:57;9.10;;;5.37;;
8293;SDS011;4185;41.506;24.938;2023-03-01T02:13:26;3.80;;;3.40;;
8293;SDS011;4185;41.506;24.938;2023-03-01T02:15:53;4.30;;;2.53;;
8293;SDS011;4185;41.506;24.938;2023-03-01T02:18:20;3.00;;;2.60;;
8293;SDS011;4185;41.506;24.938;2023-03-01T02:20:52;4.20;;;2.90;;
8293;SDS011;4185;41.506;24.938;2023-03-01T02:23:28;2.53;;;2.23;;
8293;SDS011;4185;41.506;24.938;2023-03-01T02:25:57;2.60;;;2.40;;
8293;SDS011;4185;41.506;24.938;2023-03-01T02:28:34;2.77;;;2.57;;
8293;SDS011;4185;41.506;24.938;2023-03-01T02:31:03;2.47;;;2.30;;
8293;SDS011;4185;41.506;24.938;2023-03-01T02:33:49;3.23;;;2.73;;
8293;SDS011;4185;41.506;24.938;2023-03-01T02:36:18;4.33;;;3.80;;
8293;SDS011;4185;41.506;24.938;2023-03-01T02:38:47;3.43;;;3.13;;
8293;SDS011;4185;41.506;24.938;2023-03-01T02:41:15;2.47;;;2.27;;
8293;SDS011;4185;41.506;24.938;2023-03-01T02:43:45;2.23;;;2.03;;
8293;SDS011;4185;41.506;24.938;2023-03-01T02:46:16;2.00;;;1.90;;
8293;SDS011;4185;41.506;24.938;2023-03-01T02:48:45;2.60;;;2.40;;
8293;SDS011;4185;41.506;24.938;2023-03-01T02:51:21;3.63;;;3.00;;
8293;SDS011;4185;41.506;24.938;2023-03-01T02:53:56;2.50;;;2.30;;
8293;SDS011;4185;41.506;24.938;2023-03-01T02:56:33;7.70;;;5.80;;
8293;SDS011;4185;41.506;24.938;2023-03-01T02:59:02;3.50;;;3.13;;
8293;SDS011;4185;41.506;24.938;2023-03-01T03:01:29;3.20;;;2.90;;
8293;SDS011;4185;41.506;24.938;2023-03-01T03:04:02;2.73;;;1.90;;
8293;SDS011;4185;41.506;24.938;2023-03-01T03:06:30;1.73;;;1.60;;
8293;SDS011;4185;41.506;24.938;2023-03-01T03:08:57;1.90;;;1.80;;
8293;SDS011;4185;41.506;24.938;2023-03-01T03:11:23;2.27;;;2.17;;
8293;SDS011;4185;41.506;24.938;2023-03-01T03:13:50;7.97;;;4.43;;
8293;SDS011;4185;41.506;24.938;2023-03-01T03:16:19;6.27;;;4.00;;
8293;SDS011;4185;41.506;24.938;2023-03-01T03:18:46;7.37;;;5.77;;
8293;SDS011;4185;41.506;24.938;2023-03-01T03:21:13;3.30;;;3.00;;
8293;SDS011;4185;41.506;24.938;2023-03-01T03:23:41;2.77;;;2.57;;
8293;SDS011;4185;41.506;24.938;2023-03-01T03:26:08;3.13;;;2.30;;
8293;SDS011;4185;41.506;24.938;2023-03-01T03:28:40;7.77;;;4.60;;
8293;SDS011;4185;41.506;24.938;2023-03-01T03:31:07;3.93;;;3.53;;
8293;SDS011;4185;41.506;24.938;2023-03-01T03:33:35;3.03;;;2.67;;
8293;SDS011;4185;41.506;24.938;2023-03-01T03:36:03;3.83;;;3.53;;
8293;SDS011;4185;41.506;24.938;2023-03-01T03:38:30;3.83;;;2.50;;
8293;SDS011;4185;41.506;24.938;2023-03-01T03:41:00;2.90;;;2.63;;
8293;SDS011;4185;41.506;24.938;2023-03-01T03:43:30;3.90;;;3.40;;
8293;SDS011;4185;41.506;24.938;2023-03-01T03:45:58;3.07;;;2.80;;
8293;SDS011;4185;41.506;24.938;2023-03-01T03:48:25;3.07;;;2.50;;
8293;SDS011;4185;41.506;24.938;2023-03-01T03:50:54;4.97;;;3.17;;
8293;SDS011;4185;41.506;24.938;2023-03-01T03:53:23;3.60;;;3.30;;
8293;SDS011;4185;41.506;24.938;2023-03-01T03:55:51;3.67;;;3.20;;
8293;SDS011;4185;41.506;24.938;2023-03-01T03:58:19;3.80;;;3.00;;
8293;SDS011;4185;41.506;24.938;2023-03-01T04:00:48;11.80;;;5.73;;
8293;SDS011;4185;41.506;24.938;2023-03-01T04:03:18;5.57;;;5.07;;
8293;SDS011;4185;41.506;24.938;2023-03-01T04:05:46;85.87;;;51.97;;
8293;SDS011;4185;41.506;24.938;2023-03-01T04:08:16;60.30;;;42.27;;
8293;SDS011;4185;41.506;24.938;2023-03-01T04:10:45;3.07;;;2.77;;
8293;SDS011;4185;41.506;24.938;2023-03-01T04:13:14;3.30;;;3.03;;
8293;SDS011;4185;41.506;24.938;2023-03-01T04:15:44;3.10;;;2.90;;
8293;SDS011;4185;41.506;24.938;2023-03-01T04:18:12;4.77;;;3.97;;
8293;SDS011;4185;41.506;24.938;2023-03-01T04:20:41;5.00;;;4.50;;
8293;SDS011;4185;41.506;24.938;2023-03-01T04:23:11;3.47;;;3.23;;
8293;SDS011;4185;41.506;24.938;2023-03-01T04:25:44;5.43;;;3.00;;
8293;SDS011;4185;41.506;24.938;2023-03-01T04:28:14;6.83;;;5.60;;
8293;SDS011;4185;41.506;24.938;2023-03-01T04:30:41;7.27;;;5.30;;
8293;SDS011;4185;41.506;24.938;2023-03-01T04:33:09;4.33;;;3.93;;
8293;SDS011;4185;41.506;24.938;2023-03-01T04:35:37;5.20;;;3.50;;
8293;SDS011;4185;41.506;24.938;2023-03-01T04:38:05;5.60;;;3.23;;
8293;SDS011;4185;41.506;24.938;2023-03-01T04:40:32;5.07;;;3.40;;
8293;SDS011;4185;41.506;24.938;2023-03-01T04:43:01;8.10;;;6.87;;
8293;SDS011;4185;41.506;24.938;2023-03-01T04:45:30;6.83;;;6.13;;
8293;SDS011;4185;41.506;24.938;2023-03-01T04:47:59;6.10;;;5.10;;
8293;SDS011;4185;41.506;24.938;2023-03-01T04:50:26;4.33;;;3.93;;
8293;SDS011;4185;41.506;24.938;2023-03-01T04:52:53;15.30;;;8.43;;
8293;SDS011;4185;41.506;24.938;2023-03-01T04:55:23;10.13;;;9.23;;
8293;SDS011;4185;41.506;24.938;2023-03-01T04:57:51;6.43;;;5.87;;
8293;SDS011;4185;41.506;24.938;2023-03-01T05:00:21;7.07;;;6.37;;
8293;SDS011;4185;41.506;24.938;2023-03-01T05:02:49;11.97;;;8.97;;
8293;SDS011;4185;41.506;24.938;2023-03-01T05:05:23;3.30;;;3.00;;
8293;SDS011;4185;41.506;24.938;2023-03-01T05:07:53;4.77;;;4.37;;
8293;SDS011;4185;41.506;24.938;2023-03-01T05:10:22;17.13;;;15.47;;
8293;SDS011;4185;41.506;24.938;2023-03-01T05:12:49;10.00;;;8.97;;
8293;SDS011;4185;41.506;24.938;2023-03-01T05:15:17;8.60;;;7.80;;
8293;SDS011;4185;41.506;24.938;2023-03-01T05:17:48;22.80;;;20.70;;
8293;SDS011;4185;41.506;24.938;2023-03-01T05:20:15;15.73;;;14.13;;
8293;SDS011;4185;41.506;24.938;2023-03-01T05:22:42;9.83;;;8.90;;
8293;SDS011;4185;41.506;24.938;2023-03-01T05:25:09;6.53;;;5.30;;
8293;SDS011;4185;41.506;24.938;2023-03-01T05:27:39;23.03;;;20.57;;
8293;SDS011;4185;41.506;24.938;2023-03-01T05:30:06;6.63;;;6.07;;
8293;SDS011;4185;41.506;24.938;2023-03-01T05:32:40;45.73;;;41.43;;
8293;SDS011;4185;41.506;24.938;2023-03-01T05:35:10;10.93;;;9.83;;
8293;SDS011;4185;41.506;24.938;2023-03-01T05:37:40;7.87;;;6.63;;
8293;SDS011;4185;41.506;24.938;2023-03-01T05:40:08;7.83;;;6.77;;
8293;SDS011;4185;41.506;24.938;2023-03-01T05:42:43;5.53;;;5.03;;
8293;SDS011;4185;41.506;24.938;2023-03-01T05:45:11;7.07;;;5.83;;
8293;SDS011;4185;41.506;24.938;2023-03-01T05:47:38;16.60;;;15.10;;
8293;SDS011;4185;41.506;24.938;2023-03-01T05:50:11;4.63;;;4.13;;
8293;SDS011;4185;41.506;24.938;2023-03-01T05:52:39;9.00;;;6.37;;
8293;SDS011;4185;41.506;24.938;2023-03-01T05:55:07;6.27;;;5.40;;
8293;SDS011;4185;41.506;24.938;2023-03-01T05:57:34;4.70;;;4.20;;
8293;SDS011;4185;41.506;24.938;2023-03-01T06:00:01;4.93;;;4.03;;
8293;SDS011;4185;41.506;24.938;2023-03-01T06:02:29;5.67;;;4.43;;
8293;SDS011;4185;41.506;24.938;2023-03-01T06:04:55;4.97;;;4.57;;
8293;SDS011;4185;41.506;24.938;2023-03-01T06:07:24;4.83;;;4.10;;
8293;SDS011;4185;41.506;24.938;2023-03-01T06:09:51;3.43;;;2.90;;
8293;SDS011;4185;41.506;24.938;2023-03-01T06:12:18;4.73;;;4.10;;
8293;SDS011;4185;41.506;24.938;2023-03-01T06:14:45;5.17;;;4.10;;
8293;SDS011;4185;41.506;24.938;2023-03-01T06:17:13;4.97;;;4.03;;
8293;SDS011;4185;41.506;24.938;2023-03-01T06:19:40;7.30;;;6.60;;
8293;SDS011;4185;41.506;24.938;2023-03-01T06:22:07;8.40;;;7.50;;
8293;SDS011;4185;41.506;24.938;2023-03-01T06:24:36;5.27;;;4.77;;
8293;SDS011;4185;41.506;24.938;2023-03-01T06:27:05;4.03;;;3.73;;
8293;SDS011;4185;41.506;24.938;2023-03-01T06:29:32;4.47;;;3.97;;
8293;SDS011;4185;41.506;24.938;2023-03-01T06:31:59;6.10;;;4.63;;
8293;SDS011;4185;41.506;24.938;2023-03-01T06:34:26;5.43;;;4.43;;
8293;SDS011;4185;41.506;24.938;2023-03-01T06:36:54;6.43;;;4.40;;
8293;SDS011;4185;41.506;24.938;2023-03-01T06:39:21;5.00;;;4.50;;
8293;SDS011;4185;41.506;24.938;2023-03-01T06:41:49;6.50;;;4.90;;
8293;SDS011;4185;41.506;24.938;2023-03-01T06:44:16;6.53;;;5.93;;
8293;SDS011;4185;41.506;24.938;2023-03-01T06:46:43;9.70;;;8.80;;
8293;SDS011;4185;41.506;24.938;2023-03-01T06:49:10;8.37;;;4.50;;
8293;SDS011;4185;41.506;24.938;2023-03-01T06:51:37;6.47;;;5.87;;
8293;SDS011;4185;41.506;24.938;2023-03-01T06:54:04;4.37;;;3.90;;
8293;SDS011;4185;41.506;24.938;2023-03-01T06:56:31;4.33;;;3.93;;
8293;SDS011;4185;41.506;24.938;2023-03-01T06:59:00;4.93;;;3.63;;
8293;SDS011;4185;41.506;24.938;2023-03-01T07:01:27;4.17;;;3.77;;
8293;SDS011;4185;41.506;24.938;2023-03-01T07:03:54;7.10;;;4.40;;
8293;SDS011;4185;41.506;24.938;2023-03-01T07:06:21;10.40;;;7.67;;
8293;SDS011;4185;41.506;24.938;2023-03-01T07:08:48;7.97;;;5.87;;
8293;SDS011;4185;41.506;24.938;2023-03-01T07:11:15;6.43;;;5.80;;
8293;SDS011;4185;41.506;24.938;2023-03-01T07:13:43;6.63;;;4.30;;
8293;SDS011;4185;41.506;24.938;2023-03-01T07:16:11;5.47;;;4.73;;
8293;SDS011;4185;41.506;24.938;2023-03-01T07:18:39;5.47;;;4.80;;
8293;SDS011;4185;41.506;24.938;2023-03-01T07:21:06;5.57;;;4.50;;
8293;SDS011;4185;41.506;24.938;2023-03-01T07:23:34;4.50;;;4.10;;
8293;SDS011;4185;41.506;24.938;2023-03-01T07:26:01;4.37;;;3.97;;
8293;SDS011;4185;41.506;24.938;2023-03-01T07:28:28;4.47;;;4.00;;
8293;SDS011;4185;41.506;24.938;2023-03-01T07:31:00;4.90;;;3.70;;
8293;SDS011;4185;41.506;24.938;2023-03-01T07:33:28;10.37;;;6.47;;
8293;SDS011;4185;41.506;24.938;2023-03-01T07:35:55;14.10;;;7.60;;
8293;SDS011;4185;41.506;24.938;2023-03-01T07:38:24;14.50;;;7.77;;
8293;SDS011;4185;41.506;24.938;2023-03-01T07:40:51;18.47;;;9.03;;
8293;SDS011;4185;41.506;24.938;2023-03-01T07:43:18;16.97;;;8.33;;
8293;SDS011;4185;41.506;24.938;2023-03-01T07:45:45;17.93;;;9.93;;
8293;SDS011;4185;41.506;24.938;2023-03-01T07:48:12;75.80;;;31.93;;
8293;SDS011;4185;41.506;24.938;2023-03-01T07:50:41;72.33;;;35.27;;
8293;SDS011;4185;41.506;24.938;2023-03-01T07:53:08;28.07;;;14.90;;
8293;SDS011;4185;41.506;24.938;2023-03-01T07:55:35;31.83;;;16.13;;
8293;SDS011;4185;41.506;24.938;2023-03-01T07:58:02;60.00;;;26.77;;
8293;SDS011;4185;41.506;24.938;2023-03-01T08:00:29;40.73;;;18.53;;
8293;SDS011;4185;41.506;24.938;2023-03-01T08:02:58;56.33;;;23.90;;
8293;SDS011;4185;41.506;24.938;2023-03-01T08:05:25;140.67;;;50.70;;
8293;SDS011;4185;41.506;24.938;2023-03-01T08:07:54;170.53;;;61.30;;
8293;SDS011;4185;41.506;24.938;2023-03-01T08:10:21;61.80;;;24.83;;
8293;SDS011;4185;41.506;24.938;2023-03-01T08:12:50;39.50;;;16.93;;
8293;SDS011;4185;41.506;24.938;2023-03-01T08:15:18;9.93;;;7.30;;
8293;SDS011;4185;41.506;24.938;2023-03-01T08:17:45;4.97;;;4.57;;
8293;SDS011;4185;41.506;24.938;2023-03-01T08:20:12;8.60;;;7.03;;
8293;SDS011;4185;41.506;24.938;2023-03-01T08:22:38;6.83;;;6.03;;
8293;SDS011;4185;41.506;24.938;2023-03-01T08:25:07;7.40;;;6.70;;
8293;SDS011;4185;41.506;24.938;2023-03-01T08:27:34;5.30;;;4.80;;
8293;SDS011;4185;41.506;24.938;2023-03-01T08:30:01;7.20;;;6.07;;
8293;SDS011;4185;41.506;24.938;2023-03-01T08:32:28;7.77;;;5.40;;
8293;SDS011;4185;41.506;24.938;2023-03-01T08:34:55;7.00;;;4.67;;
8293;SDS011;4185;41.506;24.938;2023-03-01T08:37:25;5.20;;;4.50;;
8293;SDS011;4185;41.506;24.938;2023-03-01T08:39:52;7.57;;;5.20;;
8293;SDS011;4185;41.506;24.938;2023-03-01T08:42:21;5.93;;;4.83;;
8293;SDS011;4185;41.506;24.938;2023-03-01T08:44:49;5.23;;;4.30;;
8293;SDS011;4185;41.506;24.938;2023-03-01T08:47:19;3.83;;;3.50;;
8293;SDS011;4185;41.506;24.938;2023-03-01T08:49:46;7.43;;;5.90;;
8293;SDS011;4185;41.506;24.938;2023-03-01T08:52:15;7.53;;;6.57;;
8293;SDS011;4185;41.506;24.938;2023-03-01T08:54:42;4.77;;;4.23;;
8293;SDS011;4185;41.506;24.938;2023-03-01T08:57:09;5.57;;;4.50;;
8293;SDS011;4185;41.506;24.938;2023-03-01T08:59:38;5.30;;;4.80;;
8293;SDS011;4185;41.506;24.938;2023-03-01T09:02:06;9.10;;;6.90;;
8293;SDS011;4185;41.506;24.938;2023-03-01T09:04:38;5.50;;;3.83;;
8293;SDS011;4185;41.506;24.938;2023-03-01T09:07:05;4.77;;;3.50;;
8293;SDS011;4185;41.506;24.938;2023-03-01T09:09:33;6.63;;;4.40;;
8293;SDS011;4185;41.506;24.938;2023-03-01T09:12:00;9.30;;;8.40;;
8293;SDS011;4185;41.506;24.938;2023-03-01T09:14:28;7.50;;;6.70;;
8293;SDS011;4185;41.506;24.938;2023-03-01T09:16:56;6.33;;;5.73;;
8293;SDS011;4185;41.506;24.938;2023-03-01T09:19:23;6.57;;;4.73;;
8293;SDS011;4185;41.506;24.938;2023-03-01T09:21:50;7.50;;;6.80;;
8293;SDS011;4185;41.506;24.938;2023-03-01T09:24:19;4.83;;;4.37;;
8293;SDS011;4185;41.506;24.938;2023-03-01T09:26:47;9.13;;;8.27;;
8293;SDS011;4185;41.506;24.938;2023-03-01T09:29:14;5.77;;;4.67;;
8293;SDS011;4185;41.506;24.938;2023-03-01T09:31:42;8.27;;;7.30;;
8293;SDS011;4185;41.506;24.938;2023-03-01T09:34:10;11.53;;;9.60;;
8293;SDS011;4185;41.506;24.938;2023-03-01T09:36:38;7.70;;;5.20;;
8293;SDS011;4185;41.506;24.938;2023-03-01T09:39:05;6.87;;;5.17;;
8293;SDS011;4185;41.506;24.938;2023-03-01T09:41:38;9.67;;;8.07;;
8293;SDS011;4185;41.506;24.938;2023-03-01T09:44:13;6.13;;;4.80;;
8293;SDS011;4185;41.506;24.938;2023-03-01T09:46:47;8.10;;;6.10;;
8293;SDS011;4185;41.506;24.938;2023-03-01T09:49:17;11.10;;;9.87;;
8293;SDS011;4185;41.506;24.938;2023-03-01T09:51:49;8.50;;;7.00;;
8293;SDS011;4185;41.506;24.938;2023-03-01T09:54:22;5.40;;;4.90;;
8293;SDS011;4185;41.506;24.938;2023-03-01T09:56:53;10.67;;;7.03;;
8293;SDS011;4185;41.506;24.938;2023-03-01T09:59:30;5.50;;;5.00;;
8293;SDS011;4185;41.506;24.938;2023-03-01T10:02:12;7.07;;;4.57;;
8293;SDS011;4185;41.506;24.938;2023-03-01T10:04:49;5.43;;;4.30;;
8293;SDS011;4185;41.506;24.938;2023-03-01T10:07:26;3.97;;;3.40;;
8293;SDS011;4185;41.506;24.938;2023-03-01T10:09:59;5.20;;;4.00;;
8293;SDS011;4185;41.506;24.938;2023-03-01T10:12:32;5.90;;;4.77;;
8293;SDS011;4185;41.506;24.938;2023-03-01T10:15:04;7.50;;;5.87;;
8293;SDS011;4185;41.506;24.938;2023-03-01T10:17:36;5.80;;;4.63;;
8293;SDS011;4185;41.506;24.938;2023-03-01T10:20:18;8.60;;;6.10;;
8293;SDS011;4185;41.506;24.938;2023-03-01T10:22:47;20.43;;;12.43;;
8293;SDS011;4185;41.506;24.938;2023-03-01T10:25:20;8.60;;;5.67;;
8293;SDS011;4185;41.506;24.938;2023-03-01T10:27:53;11.73;;;8.27;;
8293;SDS011;4185;41.506;24.938;2023-03-01T10:30:29;6.10;;;5.17;;
8293;SDS011;4185;41.506;24.938;2023-03-01T10:33:01;6.27;;;5.67;;
8293;SDS011;4185;41.506;24.938;2023-03-01T10:35:32;8.33;;;6.17;;
8293;SDS011;4185;41.506;24.938;2023-03-01T10:38:03;7.83;;;5.93;;
8293;SDS011;4185;41.506;24.938;2023-03-01T10:40:32;12.47;;;9.33;;
8293;SDS011;4185;41.506;24.938;2023-03-01T10:43:01;7.40;;;5.43;;
8293;SDS011;4185;41.506;24.938;2023-03-01T10:45:31;10.00;;;6.73;;
8293;SDS011;4185;41.506;24.938;2023-03-01T10:48:04;6.40;;;5.63;;
8293;SDS011;4185;41.506;24.938;2023-03-01T10:50:39;6.80;;;5.47;;
8293;SDS011;4185;41.506;24.938;2023-03-01T10:53:16;6.60;;;5.03;;
8293;SDS011;4185;41.506;24.938;2023-03-01T10:55:58;7.87;;;5.60;;
8293;SDS011;4185;41.506;24.938;2023-03-01T10:58:27;6.07;;;5.30;;
8293;SDS011;4185;41.506;24.938;2023-03-01T11:00:55;9.73;;;5.93;;
8293;SDS011;4185;41.506;24.938;2023-03-01T11:03:24;43.33;;;31.00;;
8293;SDS011;4185;41.506;24.938;2023-03-01T11:05:55;193.00;;;98.57;;
8293;SDS011;4185;41.506;24.938;2023-03-01T11:08:30;160.63;;;79.70;;
8293;SDS011;4185;41.506;24.938;2023-03-01T11:11:06;76.13;;;40.30;;
8293;SDS011;4185;41.506;24.938;2023-03-01T11:13:51;145.70;;;76.27;;
8293;SDS011;4185;41.506;24.938;2023-03-01T11:19:14;20.27;;;12.07;;
8293;SDS011;4185;41.506;24.938;2023-03-01T11:21:53;9.03;;;6.60;;
8293;SDS011;4185;41.506;24.938;2023-03-01T11:24:26;9.00;;;6.40;;
8293;SDS011;4185;41.506;24.938;2023-03-01T11:26:57;12.43;;;7.47;;
8293;SDS011;4185;41.506;24.938;2023-03-01T11:29:30;9.83;;;6.10;;
8293;SDS011;4185;41.506;24.938;2023-03-01T11:32:04;19.37;;;9.90;;
8293;SDS011;4185;41.506;24.938;2023-03-01T11:34:37;36.97;;;15.00;;
8293;SDS011;4185;41.506;24.938;2023-03-01T11:37:12;27.37;;;12.57;;
8293;SDS011;4185;41.506;24.938;2023-03-01T11:39:51;21.30;;;10.33;;
8293;SDS011;4185;41.506;24.938;2023-03-01T11:42:25;12.97;;;8.10;;
8293;SDS011;4185;41.506;24.938;2023-03-01T11:45:03;13.43;;;8.20;;
8293;SDS011;4185;41.506;24.938;2023-03-01T11:47:40;19.43;;;10.00;;
8293;SDS011;4185;41.506;24.938;2023-03-01T11:50:25;19.67;;;10.03;;
8293;SDS011;4185;41.506;24.938;2023-03-01T11:53:04;25.53;;;12.70;;
8293;SDS011;4185;41.506;24.938;2023-03-01T11:55:50;25.67;;;13.33;;
8293;SDS011;4185;41.506;24.938;2023-03-01T11:58:33;9.67;;;6.60;;
8293;SDS011;4185;41.506;24.938;2023-03-01T12:01:12;5.80;;;4.20;;
8293;SDS011;4185;41.506;24.938;2023-03-01T12:04:02;12.37;;;5.10;;
8293;SDS011;4185;41.506;24.938;2023-03-01T12:06:56;10.90;;;7.73;;
8293;SDS011;4185;41.506;24.938;2023-03-01T12:09:44;9.90;;;7.60;;
8293;SDS011;4185;41.506;24.938;2023-03-01T12:12:28;5.83;;;5.00;;
8293;SDS011;4185;41.506;24.938;2023-03-01T12:15:21;10.10;;;5.47;;
8293;SDS011;4185;41.506;24.938;2023-03-01T12:18:06;5.80;;;4.63;;
8293;SDS011;4185;41.506;24.938;2023-03-01T12:20:50;5.80;;;4.30;;
8293;SDS011;4185;41.506;24.938;2023-03-01T12:23:29;7.63;;;5.70;;
8293;SDS011;4185;41.506;24.938;2023-03-01T12:26:13;13.87;;;7.40;;
8293;SDS011;4185;41.506;24.938;2023-03-01T12:28:47;7.67;;;5.83;;
8293;SDS011;4185;41.506;24.938;2023-03-01T12:34:37;5.10;;;4.27;;
8293;SDS011;4185;41.506;24.938;2023-03-01T12:37:29;12.00;;;6.33;;
8293;SDS011;4185;41.506;24.938;2023-03-01T12:40:09;7.43;;;4.63;;
8293;SDS011;4185;41.506;24.938;2023-03-01T12:42:48;9.80;;;6.60;;
8293;SDS011;4185;41.506;24.938;2023-03-01T12:45:31;4.20;;;3.80;;
8293;SDS011;4185;41.506;24.938;2023-03-01T12:48:19;9.07;;;7.00;;
8293;SDS011;4185;41.506;24.938;2023-03-01T12:50:59;8.93;;;7.07;;
8293;SDS011;4185;41.506;24.938;2023-03-01T12:53:29;9.30;;;7.00;;
8293;SDS011;4185;41.506;24.938;2023-03-01T12:55:59;12.33;;;8.67;;
8293;SDS011;4185;41.506;24.938;2023-03-01T12:58:31;6.63;;;5.13;;
8293;SDS011;4185;41.506;24.938;2023-03-01T13:01:04;13.97;;;9.10;;
8293;SDS011;4185;41.506;24.938;2023-03-01T13:03:42;11.20;;;8.30;;
8293;SDS011;4185;41.506;24.938;2023-03-01T13:06:25;12.73;;;8.73;;
8293;SDS011;4185;41.506;24.938;2023-03-01T13:09:03;15.33;;;12.23;;
8293;SDS011;4185;41.506;24.938;2023-03-01T13:11:34;15.30;;;9.53;;
8293;SDS011;4185;41.506;24.938;2023-03-01T13:17:21;11.27;;;7.63;;
8293;SDS011;4185;41.506;24.938;2023-03-01T13:19:57;8.90;;;7.97;;
8293;SDS011;4185;41.506;24.938;2023-03-01T13:22:26;6.47;;;5.87;;
8293;SDS011;4185;41.506;24.938;2023-03-01T13:27:45;10.00;;;8.13;;
8293;SDS011;4185;41.506;24.938;2023-03-01T13:36:06;7.23;;;6.53;;
8293;SDS011;4185;41.506;24.938;2023-03-01T13:38:36;8.20;;;6.80;;
8293;SDS011;4185;41.506;24.938;2023-03-01T13:41:06;6.97;;;4.60;;
8293;SDS011;4185;41.506;24.938;2023-03-01T13:43:35;9.93;;;7.07;;
8293;SDS011;4185;41.506;24.938;2023-03-01T13:46:09;7.90;;;5.67;;
8293;SDS011;4185;41.506;24.938;2023-03-01T13:48:38;10.13;;;6.17;;
8293;SDS011;4185;41.506;24.938;2023-03-01T13:51:07;5.33;;;4.70;;
8293;SDS011;4185;41.506;24.938;2023-03-01T13:53:38;6.57;;;5.83;;
8293;SDS011;4185;41.506;24.938;2023-03-01T13:56:09;9.20;;;6.50;;
8293;SDS011;4185;41.506;24.938;2023-03-01T13:58:50;6.10;;;4.87;;
8293;SDS011;4185;41.506;24.938;2023-03-01T14:01:24;8.10;;;4.60;;
8293;SDS011;4185;41.506;24.938;2023-03-01T14:03:53;7.10;;;4.40;;
8293;SDS011;4185;41.506;24.938;2023-03-01T14:06:22;3.20;;;2.90;;
8293;SDS011;4185;41.506;24.938;2023-03-01T14:08:51;13.10;;;6.80;;
8293;SDS011;4185;41.506;24.938;2023-03-01T14:14:45;8.40;;;5.77;;
8293;SDS011;4185;41.506;24.938;2023-03-01T14:17:35;4.87;;;3.80;;
8293;SDS011;4185;41.506;24.938;2023-03-01T14:20:19;5.60;;;4.23;;
8293;SDS011;4185;41.506;24.938;2023-03-01T14:22:47;7.60;;;4.93;;
8293;SDS011;4185;41.506;24.938;2023-03-01T14:25:18;7.20;;;4.20;;
8293;SDS011;4185;41.506;24.938;2023-03-01T14:27:51;4.53;;;3.00;;
8293;SDS011;4185;41.506;24.938;2023-03-01T14:30:22;5.50;;;2.83;;
8293;SDS011;4185;41.506;24.938;2023-03-01T14:32:53;4.93;;;3.93;;
8293;SDS011;4185;41.506;24.938;2023-03-01T14:35:22;4.17;;;3.77;;
8293;SDS011;4185;41.506;24.938;2023-03-01T14:37:51;3.33;;;3.03;;
8293;SDS011;4185;41.506;24.938;2023-03-01T14:40:25;3.73;;;3.23;;
8293;SDS011;4185;41.506;24.938;2023-03-01T14:42:53;3.27;;;2.83;;
8293;SDS011;4185;41.506;24.938;2023-03-01T14:45:25;3.93;;;3.07;;
8293;SDS011;4185;41.506;24.938;2023-03-01T14:47:58;6.77;;;4.50;;
8293;SDS011;4185;41.506;24.938;2023-03-01T14:50:27;7.40;;;4.93;;
8293;SDS011;4185;41.506;24.938;2023-03-01T14:52:57;8.10;;;5.90;;
8293;SDS011;4185;41.506;24.938;2023-03-01T14:55:26;10.00;;;6.67;;
8293;SDS011;4185;41.506;24.938;2023-03-01T14:57:56;14.23;;;10.60;;
8293;SDS011;4185;41.506;24.938;2023-03-01T15:00:23;10.77;;;7.30;;
8293;SDS011;4185;41.506;24.938;2023-03-01T15:02:53;9.50;;;6.70;;
8293;SDS011;4185;41.506;24.938;2023-03-01T15:05:24;7.47;;;5.20;;
8293;SDS011;4185;41.506;24.938;2023-03-01T15:08:02;6.67;;;5.90;;
8293;SDS011;4185;41.506;24.938;2023-03-01T15:10:32;5.33;;;4.57;;
8293;SDS011;4185;41.506;24.938;2023-03-01T15:13:09;5.07;;;4.30;;
8293;SDS011;4185;41.506;24.938;2023-03-01T15:15:38;4.83;;;4.10;;
8293;SDS011;4185;41.506;24.938;2023-03-01T15:18:15;3.73;;;3.40;;
8293;SDS011;4185;41.506;24.938;2023-03-01T15:20:45;4.47;;;3.63;;
8293;SDS011;4185;41.506;24.938;2023-03-01T15:23:18;5.90;;;5.30;;
8293;SDS011;4185;41.506;24.938;2023-03-01T15:25:48;8.03;;;6.60;;
8293;SDS011;4185;41.506;24.938;2023-03-01T15:28:21;5.53;;;3.73;;
8293;SDS011;4185;41.506;24.938;2023-03-01T15:30:52;2.73;;;2.43;;
8293;SDS011;4185;41.506;24.938;2023-03-01T15:33:30;8.30;;;5.73;;
8293;SDS011;4185;41.506;24.938;2023-03-01T15:36:04;4.70;;;3.60;;
8293;SDS011;4185;41.506;24.938;2023-03-01T15:39:02;5.47;;;4.27;;
8293;SDS011;4185;41.506;24.938;2023-03-01T15:41:31;5.03;;;3.73;;